createdAt,value
2023-01-29T00:01:56.189Z,15.07
2023-01-29T00:04:23.167Z,20.90
2023-01-29T00:06:49.920Z,18.45
2023-01-29T00:09:16.738Z,17.10
2023-01-29T00:11:43.649Z,16.40
2023-01-29T00:14:10.656Z,16.73
2023-01-29T00:16:37.540Z,15.02
2023-01-29T00:19:04.411Z,14.07
2023-01-29T00:21:32.144Z,14.50
2023-01-29T00:23:59.306Z,17.40
2023-01-29T00:26:26.613Z,16.85
2023-01-29T00:28:53.533Z,14.63
2023-01-29T00:31:21.951Z,15.18
2023-01-29T00:33:49.389Z,21.75
2023-01-29T00:36:17.862Z,15.02
2023-01-29T00:38:46.415Z,16.70
2023-01-29T00:41:33.236Z,16.48
2023-01-29T00:44:19.061Z,14.15
2023-01-29T00:46:46.020Z,17.42
2023-01-29T00:49:12.888Z,16.98
2023-01-29T00:51:39.837Z,19.55
2023-01-29T00:54:09.418Z,18.02
2023-01-29T00:56:36.719Z,18.48
2023-01-29T00:59:04.171Z,18.65
2023-01-29T01:01:49.673Z,18.25
2023-01-29T01:04:16.618Z,18.45
2023-01-29T01:06:43.674Z,18.05
2023-01-29T01:09:28.938Z,19.60
2023-01-29T01:11:55.952Z,17.67
2023-01-29T01:14:23.177Z,17.75
2023-01-29T01:16:49.904Z,17.33
2023-01-29T01:19:16.728Z,15.20
2023-01-29T01:21:45.448Z,20.35
2023-01-29T01:24:12.986Z,19.30
2023-01-29T01:26:39.953Z,15.27
2023-01-29T01:29:06.914Z,16.27
2023-01-29T01:31:33.733Z,18.42
2023-01-29T01:34:01.145Z,19.92
2023-01-29T01:36:28.641Z,19.48
2023-01-29T01:38:55.589Z,18.60
2023-01-29T01:41:24.031Z,16.85
2023-01-29T01:43:58.493Z,20.83
2023-01-29T01:46:26.008Z,18.40
2023-01-29T01:49:10.199Z,19.52
2023-01-29T01:51:41.003Z,21.63
2023-01-29T01:54:19.108Z,19.02
2023-01-29T01:56:47.921Z,17.73
2023-01-29T01:59:16.666Z,16.85
2023-01-29T02:01:47.940Z,17.98
2023-01-29T02:04:35.561Z,19.40
2023-01-29T02:07:22.629Z,20.40
2023-01-29T02:09:55.273Z,15.98
2023-01-29T02:12:22.127Z,21.05
2023-01-29T02:14:49.887Z,22.23
2023-01-29T02:17:18.506Z,19.05
2023-01-29T02:20:04.714Z,21.52
2023-01-29T02:23:02.706Z,23.20
2023-01-29T02:25:58.395Z,19.48
2023-01-29T02:28:39.005Z,18.48
2023-01-29T02:31:35.154Z,22.20
2023-01-29T02:34:11.955Z,23.17
2023-01-29T02:37:04.972Z,20.27
2023-01-29T02:39:58.713Z,23.10
2023-01-29T02:42:36.218Z,20.05
2023-01-29T02:45:38.577Z,20.95
2023-01-29T02:48:06.790Z,21.98
2023-01-29T02:50:59.228Z,20.27
2023-01-29T02:53:37.753Z,23.43
2023-01-29T02:56:11.614Z,22.55
2023-01-29T02:58:40.047Z,22.50
2023-01-29T03:01:14.187Z,19.60
2023-01-29T03:03:43.690Z,21.40
2023-01-29T03:06:37.254Z,22.42
2023-01-29T03:09:16.766Z,19.13
2023-01-29T03:11:48.594Z,23.15
2023-01-29T03:14:24.975Z,23.45
2023-01-29T03:16:53.655Z,20.30
2023-01-29T03:19:36.388Z,23.20
2023-01-29T03:22:08.928Z,19.95
2023-01-29T03:25:15.745Z,19.38
2023-01-29T03:28:06.804Z,19.77
2023-01-29T03:31:13.613Z,20.58
2023-01-29T03:33:54.333Z,19.80
2023-01-29T03:36:38.831Z,18.45
2023-01-29T03:39:07.277Z,21.88
2023-01-29T03:42:11.476Z,19.73
2023-01-29T03:44:42.982Z,17.98
2023-01-29T03:47:34.640Z,20.52
2023-01-29T03:50:21.106Z,17.25
2023-01-29T03:53:08.782Z,19.13
2023-01-29T03:55:42.053Z,17.33
2023-01-29T03:58:23.899Z,19.80
2023-01-29T04:01:20.984Z,18.63
2023-01-29T04:03:48.641Z,18.00
2023-01-29T04:06:24.143Z,17.90
2023-01-29T04:09:14.853Z,17.90
2023-01-29T04:11:48.455Z,17.30
2023-01-29T04:14:15.783Z,19.05
2023-01-29T04:16:46.176Z,19.20
2023-01-29T04:19:20.322Z,18.17
2023-01-29T04:21:49.149Z,18.92
2023-01-29T04:24:16.038Z,21.00
2023-01-29T04:26:48.659Z,20.65
2023-01-29T04:29:31.341Z,17.73
2023-01-29T04:32:16.205Z,21.13
2023-01-29T04:35:23.924Z,22.30
2023-01-29T04:37:54.953Z,19.73
2023-01-29T04:40:53.824Z,20.58
2023-01-29T04:43:38.875Z,20.58
2023-01-29T04:46:39.941Z,19.90
2023-01-29T04:49:23.762Z,19.27
2023-01-29T04:52:07.565Z,19.10
2023-01-29T04:55:09.090Z,16.25
2023-01-29T04:57:52.363Z,22.67
2023-01-29T05:00:30.582Z,17.95
2023-01-29T05:02:57.534Z,18.63
2023-01-29T05:05:24.288Z,18.30
2023-01-29T05:07:51.568Z,20.70
2023-01-29T05:10:19.800Z,18.25
2023-01-29T05:12:58.680Z,19.20
2023-01-29T05:15:30.395Z,19.50
2023-01-29T05:18:01.739Z,18.50
2023-01-29T05:20:33.092Z,19.92
2023-01-29T05:22:59.889Z,20.42
2023-01-29T05:25:28.557Z,18.80
2023-01-29T05:28:04.642Z,19.05
2023-01-29T05:30:35.912Z,22.17
2023-01-29T05:33:02.994Z,20.55
2023-01-29T05:35:29.969Z,18.05
2023-01-29T05:37:57.084Z,16.85
2023-01-29T05:40:24.570Z,19.10
2023-01-29T05:42:51.463Z,16.10
2023-01-29T05:45:18.702Z,15.93
2023-01-29T05:47:46.020Z,17.40
2023-01-29T05:50:13.383Z,18.00
2023-01-29T05:52:40.533Z,16.35
2023-01-29T05:55:08.534Z,16.48
2023-01-29T05:57:35.373Z,16.90
2023-01-29T06:00:02.258Z,16.75
2023-01-29T06:02:39.446Z,16.52
2023-01-29T06:05:06.503Z,15.10
2023-01-29T06:07:33.275Z,17.25
2023-01-29T06:10:00.084Z,15.90
2023-01-29T06:12:27.436Z,13.63
2023-01-29T06:14:54.169Z,15.18
2023-01-29T06:17:20.944Z,12.85
2023-01-29T06:19:49.825Z,13.35
2023-01-29T06:22:16.634Z,11.88
2023-01-29T06:24:43.464Z,10.43
2023-01-29T06:27:10.274Z,13.52
2023-01-29T06:29:37.035Z,11.40
2023-01-29T06:32:04.037Z,13.02
2023-01-29T06:34:30.821Z,11.18
2023-01-29T06:36:57.633Z,12.48
2023-01-29T06:39:24.377Z,12.05
2023-01-29T06:41:51.221Z,13.25
2023-01-29T06:44:17.968Z,9.93
2023-01-29T06:46:44.810Z,10.13
2023-01-29T06:49:11.552Z,10.57
2023-01-29T06:51:38.425Z,11.00
2023-01-29T06:54:06.400Z,9.88
2023-01-29T06:56:33.281Z,10.60
2023-01-29T06:59:00.588Z,9.93
2023-01-29T07:01:36.049Z,9.32
2023-01-29T07:04:03.443Z,7.97
2023-01-29T07:06:30.408Z,8.52
2023-01-29T07:08:57.297Z,9.30
2023-01-29T07:11:24.077Z,12.35
2023-01-29T07:13:50.953Z,8.05
2023-01-29T07:16:19.104Z,7.82
2023-01-29T07:18:46.025Z,8.95
2023-01-29T07:21:12.787Z,8.77
2023-01-29T07:23:39.595Z,8.25
2023-01-29T07:26:06.472Z,7.47
2023-01-29T07:28:37.522Z,7.93
2023-01-29T07:31:04.757Z,7.82
2023-01-29T07:33:31.742Z,5.95
2023-01-29T07:35:58.500Z,7.68
2023-01-29T07:38:25.353Z,5.85
2023-01-29T07:40:52.815Z,5.93
2023-01-29T07:43:19.681Z,6.78
2023-01-29T07:45:46.445Z,7.78
2023-01-29T07:48:13.394Z,5.78
2023-01-29T07:50:40.741Z,5.90
2023-01-29T07:53:07.517Z,6.70
2023-01-29T07:55:34.390Z,6.00
2023-01-29T07:58:02.631Z,6.18
2023-01-29T08:00:30.124Z,6.88
2023-01-29T08:03:07.549Z,6.47
2023-01-29T08:05:34.306Z,7.88
2023-01-29T08:08:06.863Z,11.25
2023-01-29T08:10:37.953Z,5.57
2023-01-29T08:13:05.326Z,5.85
2023-01-29T08:15:32.672Z,5.05
2023-01-29T08:18:00.729Z,7.60
2023-01-29T08:20:27.596Z,5.28
2023-01-29T08:23:10.778Z,5.55
2023-01-29T08:25:37.674Z,6.80
2023-01-29T08:28:04.610Z,6.72
2023-01-29T08:30:32.789Z,6.85
2023-01-29T08:32:59.666Z,7.97
2023-01-29T08:35:26.424Z,6.80
2023-01-29T08:37:54.652Z,9.27
2023-01-29T08:40:21.864Z,7.10
2023-01-29T08:42:48.683Z,6.80
2023-01-29T08:45:15.703Z,6.88
2023-01-29T08:47:47.126Z,6.55
2023-01-29T08:50:14.305Z,7.55
2023-01-29T08:52:41.154Z,8.90
2023-01-29T08:55:08.487Z,8.57
2023-01-29T08:57:35.253Z,9.07
2023-01-29T09:00:02.098Z,7.63
2023-01-29T09:02:28.868Z,10.25
2023-01-29T09:04:55.819Z,7.93
2023-01-29T09:07:22.704Z,8.73
2023-01-29T09:09:49.587Z,7.40
2023-01-29T09:12:17.550Z,8.23
2023-01-29T09:14:44.417Z,10.45
2023-01-29T09:17:11.158Z,8.32
2023-01-29T09:19:37.931Z,9.07
2023-01-29T09:22:04.729Z,10.35
2023-01-29T09:24:32.660Z,7.07
2023-01-29T09:26:59.457Z,11.73
2023-01-29T09:29:26.259Z,10.10
2023-01-29T09:31:53.178Z,7.20
2023-01-29T09:34:20.032Z,9.50
2023-01-29T09:36:46.867Z,8.50
2023-01-29T09:39:13.746Z,9.57
2023-01-29T09:42:01.844Z,10.50
2023-01-29T09:44:47.248Z,5.95
2023-01-29T09:47:15.242Z,10.95
2023-01-29T09:50:05.704Z,9.70
2023-01-29T09:52:49.452Z,8.95
2023-01-29T09:55:22.387Z,8.20
2023-01-29T09:57:53.745Z,7.28
2023-01-29T10:00:26.525Z,8.20
2023-01-29T10:02:56.135Z,7.57
2023-01-29T10:05:26.066Z,7.10
2023-01-29T10:08:08.865Z,9.02
2023-01-29T10:10:42.066Z,8.13
2023-01-29T10:13:38.888Z,8.05
2023-01-29T10:16:21.770Z,7.70
2023-01-29T10:19:00.799Z,8.30
2023-01-29T10:21:36.872Z,7.22
2023-01-29T10:24:16.494Z,7.20
2023-01-29T10:26:43.339Z,9.23
2023-01-29T10:29:12.940Z,6.82
2023-01-29T10:31:40.609Z,7.40
2023-01-29T10:34:11.390Z,8.98
2023-01-29T10:36:48.556Z,8.60
2023-01-29T10:39:20.450Z,9.07
2023-01-29T10:41:58.791Z,8.00
2023-01-29T10:44:34.794Z,10.00
2023-01-29T10:47:12.336Z,8.27
2023-01-29T10:50:16.332Z,9.38
2023-01-29T10:53:01.192Z,6.70
2023-01-29T10:56:22.259Z,9.73
2023-01-29T10:58:57.061Z,8.73
2023-01-29T11:01:23.960Z,8.65
2023-01-29T11:04:01.752Z,8.73
2023-01-29T11:06:33.957Z,7.55
2023-01-29T11:09:38.802Z,8.60
2023-01-29T11:12:27.322Z,10.02
2023-01-29T11:14:57.541Z,9.27
2023-01-29T11:17:25.010Z,8.18
2023-01-29T11:19:52.769Z,9.50
2023-01-29T11:22:21.127Z,9.35
2023-01-29T11:25:07.887Z,8.55
2023-01-29T11:27:35.557Z,10.50
2023-01-29T11:30:02.377Z,8.23
2023-01-29T11:32:30.296Z,10.40
2023-01-29T11:35:20.950Z,7.57
2023-01-29T11:37:47.777Z,6.10
2023-01-29T11:40:35.572Z,7.22
2023-01-29T11:43:23.511Z,9.95
2023-01-29T11:45:51.967Z,7.30
2023-01-29T11:48:20.739Z,6.28
2023-01-29T11:51:00.484Z,8.48
2023-01-29T11:53:41.794Z,8.55
2023-01-29T11:56:22.608Z,10.07
2023-01-29T11:58:49.896Z,7.53
2023-01-29T12:01:18.013Z,6.72
2023-01-29T12:03:49.416Z,6.25
2023-01-29T12:06:24.074Z,6.65
2023-01-29T12:09:00.259Z,5.38
2023-01-29T12:11:31.298Z,7.60
2023-01-29T12:14:00.057Z,10.00
2023-01-29T12:16:31.515Z,5.22
2023-01-29T12:19:05.374Z,6.47
2023-01-29T12:21:46.457Z,7.88
2023-01-29T12:24:31.908Z,5.55
2023-01-29T12:27:21.704Z,5.40
2023-01-29T12:30:07.110Z,10.18
2023-01-29T12:33:03.067Z,6.10
2023-01-29T12:35:38.512Z,6.00
2023-01-29T12:38:23.794Z,6.13
2023-01-29T12:41:14.080Z,5.95
2023-01-29T12:43:45.170Z,5.95
2023-01-29T12:46:21.781Z,5.55
2023-01-29T12:48:48.577Z,5.47
2023-01-29T12:51:20.496Z,6.90
2023-01-29T12:54:02.527Z,4.55
2023-01-29T12:56:32.074Z,5.63
2023-01-29T12:59:02.944Z,4.32
2023-01-29T13:01:43.096Z,4.65
2023-01-29T13:04:15.827Z,6.82
2023-01-29T13:06:45.427Z,4.03
2023-01-29T13:09:24.580Z,2.97
2023-01-29T13:12:20.787Z,4.55
2023-01-29T13:14:53.377Z,4.30
2023-01-29T13:17:26.697Z,6.88
2023-01-29T13:19:54.974Z,6.05
2023-01-29T13:22:26.331Z,4.30
2023-01-29T13:25:04.130Z,4.28
2023-01-29T13:27:33.183Z,4.72
2023-01-29T13:30:00.039Z,2.75
2023-01-29T13:32:28.646Z,3.95
2023-01-29T13:34:59.871Z,4.43
2023-01-29T13:37:36.493Z,3.60
2023-01-29T13:40:05.448Z,5.55
2023-01-29T13:42:47.081Z,3.40
2023-01-29T13:45:36.184Z,4.07
2023-01-29T13:48:23.231Z,3.38
2023-01-29T13:50:50.047Z,4.32
2023-01-29T13:53:30.705Z,3.28
2023-01-29T13:56:21.054Z,3.20
2023-01-29T13:58:47.772Z,2.85
2023-01-29T14:01:14.596Z,2.67
2023-01-29T14:04:03.788Z,2.38
2023-01-29T14:06:36.850Z,3.30
2023-01-29T14:09:04.125Z,2.45
2023-01-29T14:11:35.729Z,2.17
2023-01-29T14:14:02.745Z,4.07
2023-01-29T14:16:34.868Z,3.05
2023-01-29T14:19:02.645Z,2.65
2023-01-29T14:21:31.892Z,2.35
2023-01-29T14:24:21.231Z,3.63
2023-01-29T14:26:48.818Z,2.75
2023-01-29T14:29:34.633Z,3.30
2023-01-29T14:32:31.341Z,1.38
2023-01-29T14:35:05.157Z,4.22
2023-01-29T14:37:35.664Z,2.25
2023-01-29T14:40:29.779Z,2.67
2023-01-29T14:43:03.291Z,2.08
2023-01-29T14:45:36.731Z,2.75
2023-01-29T14:48:09.555Z,2.53
2023-01-29T14:50:36.343Z,2.03
2023-01-29T14:53:15.435Z,2.55
2023-01-29T14:55:55.628Z,2.83
2023-01-29T14:58:34.561Z,2.30
2023-01-29T15:01:01.356Z,2.08
2023-01-29T15:03:31.063Z,2.65
2023-01-29T15:05:59.424Z,2.30
2023-01-29T15:08:39.222Z,2.10
2023-01-29T15:11:27.953Z,2.47
2023-01-29T15:14:23.997Z,4.35
2023-01-29T15:17:09.582Z,2.78
2023-01-29T15:19:44.780Z,2.03
2023-01-29T15:22:12.576Z,2.42
2023-01-29T15:24:40.157Z,37.53
2023-01-29T15:27:15.859Z,2.58
2023-01-29T15:29:44.292Z,2.85
2023-01-29T15:32:15.710Z,2.42
2023-01-29T15:34:43.893Z,3.83
2023-01-29T15:37:31.762Z,3.38
2023-01-29T15:39:59.330Z,1.98
2023-01-29T15:42:27.707Z,2.30
2023-01-29T15:44:54.653Z,1.90
2023-01-29T15:47:27.881Z,3.58
2023-01-29T15:49:57.240Z,2.88
2023-01-29T15:52:27.029Z,4.95
2023-01-29T15:54:54.820Z,2.75
2023-01-29T15:57:23.906Z,2.53
2023-01-29T15:59:52.084Z,2.88
2023-01-29T16:02:19.549Z,2.42
2023-01-29T16:04:46.412Z,2.63
2023-01-29T16:07:14.775Z,2.40
2023-01-29T16:09:41.687Z,4.22
2023-01-29T16:12:10.944Z,2.55
2023-01-29T16:14:37.793Z,3.00
2023-01-29T16:17:25.042Z,2.45
2023-01-29T16:19:59.424Z,2.17
2023-01-29T16:22:38.487Z,52.90
2023-01-29T16:25:06.653Z,3.15
2023-01-29T16:27:33.541Z,2.78
2023-01-29T16:30:02.089Z,1.83
2023-01-29T16:32:29.944Z,2.10
2023-01-29T16:34:58.437Z,2.40
2023-01-29T16:37:30.014Z,2.78
2023-01-29T16:39:56.959Z,1.98
2023-01-29T16:42:30.884Z,35.33
2023-01-29T16:44:58.667Z,12.40
2023-01-29T16:47:29.739Z,8.00
2023-01-29T16:50:04.029Z,1.60
2023-01-29T16:52:32.779Z,2.15
2023-01-29T16:55:21.421Z,1.35
2023-01-29T16:57:53.717Z,3.47
2023-01-29T17:00:26.479Z,1.88
2023-01-29T17:03:04.485Z,1.90
2023-01-29T17:05:33.361Z,1.55
2023-01-29T17:08:00.129Z,2.53
2023-01-29T17:10:27.687Z,2.15
2023-01-29T17:13:02.567Z,2.45
2023-01-29T17:15:33.723Z,2.38
2023-01-29T17:18:00.669Z,2.38
2023-01-29T17:20:27.897Z,4.03
2023-01-29T17:22:54.801Z,2.67
2023-01-29T17:25:22.059Z,2.58
2023-01-29T17:27:51.749Z,1.50
2023-01-29T17:30:21.038Z,2.03
2023-01-29T17:32:47.887Z,2.33
2023-01-29T17:35:15.746Z,2.53
2023-01-29T17:37:42.857Z,3.45
2023-01-29T17:40:22.471Z,2.58
2023-01-29T17:42:49.269Z,2.17
2023-01-29T17:45:16.402Z,1.30
2023-01-29T17:47:43.473Z,1.67
2023-01-29T17:50:30.386Z,1.30
2023-01-29T17:52:57.181Z,1.27
2023-01-29T17:55:24.314Z,0.98
2023-01-29T17:57:51.081Z,1.65
2023-01-29T18:00:22.709Z,1.42
2023-01-29T18:02:49.627Z,0.95
2023-01-29T18:05:17.074Z,0.98
2023-01-29T18:07:45.090Z,0.70
2023-01-29T18:10:13.969Z,1.02
2023-01-29T18:12:41.552Z,1.02
2023-01-29T18:15:09.073Z,1.35
2023-01-29T18:17:36.148Z,0.70
2023-01-29T18:20:03.459Z,2.15
2023-01-29T18:22:30.252Z,1.52
2023-01-29T18:24:57.079Z,1.08
2023-01-29T18:27:23.907Z,2.40
2023-01-29T18:29:50.807Z,2.08
2023-01-29T18:32:17.625Z,1.58
2023-01-29T18:34:44.410Z,1.85
2023-01-29T18:37:13.047Z,2.65
2023-01-29T18:39:40.088Z,1.50
2023-01-29T18:42:06.946Z,2.55
2023-01-29T18:44:33.777Z,3.13
2023-01-29T18:47:02.773Z,1.25
2023-01-29T18:49:29.687Z,1.05
2023-01-29T18:51:56.634Z,0.95
2023-01-29T18:54:23.396Z,1.20
2023-01-29T18:57:07.729Z,1.42
2023-01-29T18:59:38.056Z,1.20
2023-01-29T19:02:05.127Z,1.77
2023-01-29T19:04:31.977Z,1.95
2023-01-29T19:06:58.904Z,2.03
2023-01-29T19:09:25.804Z,2.50
2023-01-29T19:11:52.642Z,2.00
2023-01-29T19:14:19.497Z,2.70
2023-01-29T19:16:46.529Z,8.98
2023-01-29T19:19:13.329Z,20.63
2023-01-29T19:21:40.423Z,4.00
2023-01-29T19:24:09.964Z,14.00
2023-01-29T19:26:36.832Z,15.45
2023-01-29T19:29:03.763Z,3.75
2023-01-29T19:31:31.915Z,2.15
2023-01-29T19:33:58.885Z,3.35
2023-01-29T19:36:25.750Z,3.40
2023-01-29T19:38:52.648Z,3.00
2023-01-29T19:41:19.391Z,1.75
2023-01-29T19:43:50.449Z,5.68
2023-01-29T19:46:17.533Z,3.50
2023-01-29T19:48:45.465Z,2.53
2023-01-29T19:51:13.018Z,4.43
2023-01-29T19:53:41.035Z,2.50
2023-01-29T19:56:10.057Z,1.85
2023-01-29T19:58:38.436Z,3.13
2023-01-29T20:01:15.256Z,2.65
2023-01-29T20:03:42.664Z,2.15
2023-01-29T20:06:09.694Z,4.55
2023-01-29T20:08:36.660Z,1.85
2023-01-29T20:11:04.324Z,3.83
2023-01-29T20:13:31.359Z,3.58
2023-01-29T20:15:58.392Z,4.57
2023-01-29T20:18:25.207Z,1.48
2023-01-29T20:20:53.067Z,2.38
2023-01-29T20:23:31.792Z,3.10
2023-01-29T20:26:03.515Z,1.90
2023-01-29T20:28:31.705Z,2.58
2023-01-29T20:30:59.093Z,3.22
2023-01-29T20:33:26.391Z,2.58
2023-01-29T20:36:00.797Z,3.08
2023-01-29T20:38:30.518Z,2.50
2023-01-29T20:41:12.704Z,2.10
2023-01-29T20:43:40.537Z,2.67
2023-01-29T20:46:07.474Z,2.67
2023-01-29T20:48:34.374Z,1.80
2023-01-29T20:51:09.764Z,3.53
2023-01-29T20:53:37.507Z,2.10
2023-01-29T20:56:05.315Z,2.25
2023-01-29T20:58:32.382Z,1.85
2023-01-29T21:00:59.515Z,1.98
2023-01-29T21:03:26.296Z,2.72
2023-01-29T21:05:54.501Z,2.20
2023-01-29T21:08:21.272Z,2.60
2023-01-29T21:10:49.608Z,2.47
2023-01-29T21:13:16.413Z,3.00
2023-01-29T21:15:43.269Z,1.70
2023-01-29T21:18:10.408Z,2.75
2023-01-29T21:20:37.226Z,3.28
2023-01-29T21:23:06.853Z,2.00
2023-01-29T21:25:33.956Z,4.90
2023-01-29T21:28:00.966Z,3.08
2023-01-29T21:30:27.855Z,3.13
2023-01-29T21:32:54.687Z,2.30
2023-01-29T21:35:21.466Z,3.30
2023-01-29T21:37:48.345Z,3.08
2023-01-29T21:40:15.438Z,4.88
2023-01-29T21:43:04.439Z,5.35
2023-01-29T21:45:31.327Z,4.10
2023-01-29T21:47:58.109Z,3.35
2023-01-29T21:50:24.942Z,2.35
2023-01-29T21:52:53.061Z,2.90
2023-01-29T21:55:19.884Z,4.38
2023-01-29T21:57:46.951Z,5.65
2023-01-29T22:00:14.129Z,2.38
2023-01-29T22:02:41.068Z,3.88
2023-01-29T22:05:18.846Z,2.80
2023-01-29T22:07:48.049Z,3.92
2023-01-29T22:10:16.931Z,5.80
2023-01-29T22:12:44.709Z,3.85
2023-01-29T22:15:11.910Z,4.63
2023-01-29T22:17:41.228Z,3.50
2023-01-29T22:20:12.881Z,4.53
2023-01-29T22:22:39.862Z,3.13
2023-01-29T22:25:07.473Z,4.82
2023-01-29T22:27:34.336Z,3.17
2023-01-29T22:30:01.155Z,3.28
2023-01-29T22:32:28.008Z,2.35
2023-01-29T22:34:54.854Z,4.97
2023-01-29T22:37:21.728Z,2.95
2023-01-29T22:39:49.021Z,7.65
2023-01-29T22:42:15.786Z,3.70
2023-01-29T22:44:42.766Z,5.70
2023-01-29T22:47:09.534Z,4.10
2023-01-29T22:49:36.317Z,2.83
2023-01-29T22:52:11.916Z,2.67
2023-01-29T22:54:39.695Z,5.68
2023-01-29T22:57:06.508Z,3.50
2023-01-29T22:59:33.497Z,3.58
2023-01-29T23:02:00.317Z,5.53
2023-01-29T23:04:27.248Z,2.42
2023-01-29T23:06:54.190Z,2.92
2023-01-29T23:09:21.072Z,5.50
2023-01-29T23:11:47.859Z,2.55
2023-01-29T23:14:14.638Z,3.75
2023-01-29T23:16:41.519Z,2.88
2023-01-29T23:19:08.503Z,3.95
2023-01-29T23:21:35.382Z,5.00
2023-01-29T23:24:02.198Z,6.95
2023-01-29T23:26:47.863Z,4.95
2023-01-29T23:29:14.895Z,4.00
2023-01-29T23:31:41.809Z,4.45
2023-01-29T23:34:08.665Z,3.05
2023-01-29T23:36:35.461Z,5.13
2023-01-29T23:39:02.446Z,4.63
2023-01-29T23:41:29.240Z,8.60
2023-01-29T23:43:56.065Z,4.90
2023-01-29T23:46:22.886Z,5.03
2023-01-29T23:48:49.712Z,5.03
2023-01-29T23:51:16.490Z,4.43
2023-01-29T23:53:43.248Z,4.53
2023-01-29T23:56:10.053Z,5.10
2023-01-29T23:58:36.878Z,4.28
